Stockton, Maryland
Current Conditions -  °F | °C
As of 11:01 AM on Wednesday 22 Oct 2014 (Local Time) from KWAL Reporting Station
Overcast Overcast  
Wind Chill: 60°   Ceiling: 1300
Heat Index: 60°   Visibility: 10mi
Dew Point: 55°   Wind: 12mph
Humidity: 83%   Direction: 10°N
Pressure: 29.79"   Gusts: NA
Location:  38.05°N, 75.41°W
Report Text: KWAL 221501Z 01010KT 10SM OVC013 16/13 A2979 RMK AO2 LTG DSNT NE AND SE T01560128
Loading
Personal Weather Stations






























Interactive Weather Map
Tropical Storm Tracking
New forecast layout! Learn more

10-Day Weather Forecast

Advertisements
Track Severe Weather on mobile